sensor_id;sensor_type;location;lat;lon;timestamp;pressure;altitude;pressure_sealevel;temperature;humidity
23473;BME280;11909;52.516;13.564;2023-04-01T00:00:17;99019.22;;;8.80;100.00
23473;BME280;11909;52.516;13.564;2023-04-01T00:02:45;99019.34;;;8.74;100.00
23473;BME280;11909;52.516;13.564;2023-04-01T00:05:14;99021.78;;;8.76;100.00
23473;BME280;11909;52.516;13.564;2023-04-01T00:07:43;99019.16;;;8.71;100.00
23473;BME280;11909;52.516;13.564;2023-04-01T00:10:14;99032.34;;;8.69;100.00
23473;BME280;11909;52.516;13.564;2023-04-01T00:12:43;99020.09;;;8.66;100.00
23473;BME280;11909;52.516;13.564;2023-04-01T00:15:11;99021.69;;;8.67;100.00
23473;BME280;11909;52.516;13.564;2023-04-01T00:17:39;99021.69;;;8.67;100.00
23473;BME280;11909;52.516;13.564;2023-04-01T00:20:07;99016.03;;;8.64;100.00
23473;BME280;11909;52.516;13.564;2023-04-01T00:22:35;99017.66;;;8.65;100.00
23473;BME280;11909;52.516;13.564;2023-04-01T00:25:04;99026.19;;;8.63;100.00
23473;BME280;11909;52.516;13.564;2023-04-01T00:27:33;99018.28;;;8.61;100.00
23473;BME280;11909;52.516;13.564;2023-04-01T00:30:01;99015.25;;;8.63;100.00
23473;BME280;11909;52.516;13.564;2023-04-01T00:32:29;99009.16;;;8.66;100.00
23473;BME280;11909;52.516;13.564;2023-04-01T00:34:57;99008.03;;;8.67;100.00
23473;BME280;11909;52.516;13.564;2023-04-01T00:37:26;99010.75;;;8.67;100.00
23473;BME280;11909;52.516;13.564;2023-04-01T00:39:54;99013.19;;;8.69;100.00
23473;BME280;11909;52.516;13.564;2023-04-01T00:42:22;99017.72;;;8.73;100.00
23473;BME280;11909;52.516;13.564;2023-04-01T00:44:52;99016.72;;;8.69;100.00
23473;BME280;11909;52.516;13.564;2023-04-01T00:47:20;99015.94;;;8.69;100.00
23473;BME280;11909;52.516;13.564;2023-04-01T00:49:51;99014.19;;;8.73;100.00
23473;BME280;11909;52.516;13.564;2023-04-01T00:52:23;99021.56;;;8.72;100.00
23473;BME280;11909;52.516;13.564;2023-04-01T00:54:59;99014.63;;;8.66;100.00
23473;BME280;11909;52.516;13.564;2023-04-01T00:57:31;99014.91;;;8.65;100.00
23473;BME280;11909;52.516;13.564;2023-04-01T01:00:05;99015.75;;;8.65;100.00
23473;BME280;11909;52.516;13.564;2023-04-01T01:02:34;99017.66;;;8.65;100.00
23473;BME280;11909;52.516;13.564;2023-04-01T01:05:02;99009.28;;;8.61;100.00
23473;BME280;11909;52.516;13.564;2023-04-01T01:07:33;99014.25;;;8.59;100.00
23473;BME280;11909;52.516;13.564;2023-04-01T01:10:08;99015.03;;;8.59;100.00
23473;BME280;11909;52.516;13.564;2023-04-01T01:12:40;99025.84;;;8.65;100.00
23473;BME280;11909;52.516;13.564;2023-04-01T01:15:17;99020.59;;;8.68;100.00
23473;BME280;11909;52.516;13.564;2023-04-01T01:17:53;99022.53;;;8.68;100.00
23473;BME280;11909;52.516;13.564;2023-04-01T01:26:59;99022.03;;;8.66;100.00
23473;BME280;11909;52.516;13.564;2023-04-01T01:29:48;99022.03;;;8.66;100.00
23473;BME280;11909;52.516;13.564;2023-04-01T01:32:37;99026.69;;;8.65;100.00
23473;BME280;11909;52.516;13.564;2023-04-01T01:35:22;99025.84;;;8.65;100.00
23473;BME280;11909;52.516;13.564;2023-04-01T01:37:55;99022.81;;;8.66;100.00
23473;BME280;11909;52.516;13.564;2023-04-01T01:40:26;99024.75;;;8.66;100.00
23473;BME280;11909;52.516;13.564;2023-04-01T01:42:55;99023.50;;;8.72;100.00
23473;BME280;11909;52.516;13.564;2023-04-01T01:45:26;99029.00;;;8.72;100.00
23473;BME280;11909;52.516;13.564;2023-04-01T01:48:09;99025.44;;;8.71;100.00
23473;BME280;11909;52.516;13.564;2023-04-01T01:50:40;99027.19;;;8.67;100.00
23473;BME280;11909;52.516;13.564;2023-04-01T01:53:10;99027.66;;;8.69;100.00
23473;BME280;11909;52.516;13.564;2023-04-01T01:55:41;99024.94;;;8.69;100.00
23473;BME280;11909;52.516;13.564;2023-04-01T01:58:12;99034.25;;;8.68;100.00
23473;BME280;11909;52.516;13.564;2023-04-01T02:00:44;99040.06;;;8.67;100.00
23473;BME280;11909;52.516;13.564;2023-04-01T02:03:14;99040.41;;;8.74;100.00
23473;BME280;11909;52.516;13.564;2023-04-01T02:05:44;99033.63;;;8.71;100.00
23473;BME280;11909;52.516;13.564;2023-04-01T02:08:15;99040.06;;;8.67;100.00
23473;BME280;11909;52.516;13.564;2023-04-01T02:10:49;99034.47;;;8.72;100.00
23473;BME280;11909;52.516;13.564;2023-04-01T02:13:25;99033.00;;;8.74;100.00
23473;BME280;11909;52.516;13.564;2023-04-01T02:15:59;99034.75;;;8.70;100.00
23473;BME280;11909;52.516;13.564;2023-04-01T02:18:29;99037.19;;;8.72;100.00
23473;BME280;11909;52.516;13.564;2023-04-01T02:20:59;99032.50;;;8.72;100.00
23473;BME280;11909;52.516;13.564;2023-04-01T02:23:27;99037.63;;;8.65;100.00
23473;BME280;11909;52.516;13.564;2023-04-01T02:25:55;99032.44;;;8.64;100.00
23473;BME280;11909;52.516;13.564;2023-04-01T02:28:24;99037.41;;;8.61;100.00
23473;BME280;11909;52.516;13.564;2023-04-01T02:30:53;99037.13;;;8.63;100.00
23473;BME280;11909;52.516;13.564;2023-04-01T02:33:21;99034.06;;;8.65;100.00
23473;BME280;11909;52.516;13.564;2023-04-01T02:35:48;99039.53;;;8.65;100.00
23473;BME280;11909;52.516;13.564;2023-04-01T02:38:18;99046.94;;;8.64;100.00
23473;BME280;11909;52.516;13.564;2023-04-01T02:40:48;99043.38;;;8.64;100.00
23473;BME280;11909;52.516;13.564;2023-04-01T02:43:17;99042.88;;;8.61;100.00
23473;BME280;11909;52.516;13.564;2023-04-01T02:45:45;99045.31;;;8.63;100.00
23473;BME280;11909;52.516;13.564;2023-04-01T02:48:13;99043.38;;;8.64;100.00
23473;BME280;11909;52.516;13.564;2023-04-01T02:50:41;99051.28;;;8.65;100.00
23473;BME280;11909;52.516;13.564;2023-04-01T02:53:08;99052.91;;;8.66;100.00
23473;BME280;11909;52.516;13.564;2023-04-01T02:55:37;99057.59;;;8.66;100.00
23473;BME280;11909;52.516;13.564;2023-04-01T02:58:05;99059.19;;;8.67;100.00
23473;BME280;11909;52.516;13.564;2023-04-01T03:00:33;99061.94;;;8.67;100.00
23473;BME280;11909;52.516;13.564;2023-04-01T03:03:01;99053.72;;;8.67;100.00
23473;BME280;11909;52.516;13.564;2023-04-01T03:05:29;99063.22;;;8.69;100.00
23473;BME280;11909;52.516;13.564;2023-04-01T03:07:57;99064.53;;;8.72;100.00
23473;BME280;11909;52.516;13.564;2023-04-01T03:10:25;99059.88;;;8.72;100.00
23473;BME280;11909;52.516;13.564;2023-04-01T03:12:54;99055.84;;;8.70;100.00
23473;BME280;11909;52.516;13.564;2023-04-01T03:15:22;99054.53;;;8.67;100.00
23473;BME280;11909;52.516;13.564;2023-04-01T03:17:49;99058.38;;;8.66;100.00
23473;BME280;11909;52.516;13.564;2023-04-01T03:20:17;99058.88;;;8.68;100.00
23473;BME280;11909;52.516;13.564;2023-04-01T03:22:46;99053.91;;;8.70;100.00
23473;BME280;11909;52.516;13.564;2023-04-01T03:25:13;99056.34;;;8.72;100.00
23473;BME280;11909;52.516;13.564;2023-04-01T03:27:41;99059.56;;;8.74;100.00
23473;BME280;11909;52.516;13.564;2023-04-01T03:30:11;99062.94;;;8.71;100.00
23473;BME280;11909;52.516;13.564;2023-04-01T03:32:38;99061.31;;;8.70;100.00
23473;BME280;11909;52.516;13.564;2023-04-01T03:35:07;99071.13;;;8.71;100.00
23473;BME280;11909;52.516;13.564;2023-04-01T03:37:36;99076.59;;;8.71;100.00
23473;BME280;11909;52.516;13.564;2023-04-01T03:40:05;99072.53;;;8.68;100.00
23473;BME280;11909;52.516;13.564;2023-04-01T03:42:33;99075.28;;;8.68;100.00
23473;BME280;11909;52.516;13.564;2023-04-01T03:45:01;99076.91;;;8.69;100.00
23473;BME280;11909;52.516;13.564;2023-04-01T03:47:31;99084.31;;;8.69;100.00
23473;BME280;11909;52.516;13.564;2023-04-01T03:49:58;99076.09;;;8.69;100.00
23473;BME280;11909;52.516;13.564;2023-04-01T03:52:26;99084.31;;;8.69;100.00
23473;BME280;11909;52.516;13.564;2023-04-01T03:54:54;99085.44;;;8.68;100.00
23473;BME280;11909;52.516;13.564;2023-04-01T03:57:22;99088.16;;;8.68;100.00
23473;BME280;11909;52.516;13.564;2023-04-01T03:59:50;99090.06;;;8.67;100.00
23473;BME280;11909;52.516;13.564;2023-04-01T04:02:18;99088.16;;;8.68;100.00
23473;BME280;11909;52.516;13.564;2023-04-01T04:04:47;99095.03;;;8.65;100.00
23473;BME280;11909;52.516;13.564;2023-04-01T04:07:14;99092.31;;;8.65;100.00
23473;BME280;11909;52.516;13.564;2023-04-01T04:09:42;99100.81;;;8.64;100.00
23473;BME280;11909;52.516;13.564;2023-04-01T04:12:10;99098.41;;;8.62;100.00
23473;BME280;11909;52.516;13.564;2023-04-01T04:14:38;99100.00;;;8.63;100.00
23473;BME280;11909;52.516;13.564;2023-04-01T04:17:05;99105.16;;;8.65;100.00
23473;BME280;11909;52.516;13.564;2023-04-01T04:19:34;99101.00;;;8.67;100.00
23473;BME280;11909;52.516;13.564;2023-04-01T04:22:03;99101.84;;;8.68;100.00
23473;BME280;11909;52.516;13.564;2023-04-01T04:24:31;99105.78;;;8.61;100.00
23473;BME280;11909;52.516;13.564;2023-04-01T04:26:59;99107.91;;;8.65;100.00
23473;BME280;11909;52.516;13.564;2023-04-01T04:29:26;99108.72;;;8.65;100.00
23473;BME280;11909;52.516;13.564;2023-04-01T04:31:54;99103.38;;;8.60;100.00
23473;BME280;11909;52.516;13.564;2023-04-01T04:34:22;99112.06;;;8.62;100.00
23473;BME280;11909;52.516;13.564;2023-04-01T04:36:50;99117.22;;;8.64;100.00
23473;BME280;11909;52.516;13.564;2023-04-01T04:39:19;99111.44;;;8.65;100.00
23473;BME280;11909;52.516;13.564;2023-04-01T04:41:46;99118.53;;;8.66;100.00
23473;BME280;11909;52.516;13.564;2023-04-01T04:44:14;99113.91;;;8.67;100.00
23473;BME280;11909;52.516;13.564;2023-04-01T04:46:42;99120.97;;;8.68;100.00
23473;BME280;11909;52.516;13.564;2023-04-01T04:49:09;99117.13;;;8.69;100.00
23473;BME280;11909;52.516;13.564;2023-04-01T04:51:37;99120.97;;;8.68;100.00
23473;BME280;11909;52.516;13.564;2023-04-01T04:54:06;99121.78;;;8.68;100.00
23473;BME280;11909;52.516;13.564;2023-04-01T04:56:35;99122.88;;;8.67;100.00
23473;BME280;11909;52.516;13.564;2023-04-01T04:59:03;99123.22;;;8.66;100.00
23473;BME280;11909;52.516;13.564;2023-04-01T05:01:30;99122.78;;;8.72;100.00
23473;BME280;11909;52.516;13.564;2023-04-01T05:03:59;99122.78;;;8.72;100.00
23473;BME280;11909;52.516;13.564;2023-04-01T05:06:27;99126.13;;;8.69;100.00
23473;BME280;11909;52.516;13.564;2023-04-01T05:08:56;99126.13;;;8.69;100.00
23473;BME280;11909;52.516;13.564;2023-04-01T05:11:24;99127.88;;;8.65;100.00
23473;BME280;11909;52.516;13.564;2023-04-01T05:13:53;99137.69;;;8.66;100.00
23473;BME280;11909;52.516;13.564;2023-04-01T05:16:21;99131.91;;;8.68;100.00
23473;BME280;11909;52.516;13.564;2023-04-01T05:18:49;99135.94;;;8.70;100.00
23473;BME280;11909;52.516;13.564;2023-04-01T05:21:16;99136.44;;;8.72;100.00
23473;BME280;11909;52.516;13.564;2023-04-01T05:23:44;99136.28;;;8.69;100.00
23473;BME280;11909;52.516;13.564;2023-04-01T05:26:13;99138.19;;;8.68;100.00
23473;BME280;11909;52.516;13.564;2023-04-01T05:28:42;99138.19;;;8.68;100.00
23473;BME280;11909;52.516;13.564;2023-04-01T05:31:11;99139.50;;;8.71;100.00
23473;BME280;11909;52.516;13.564;2023-04-01T05:33:39;99140.28;;;8.71;100.00
23473;BME280;11909;52.516;13.564;2023-04-01T05:36:08;99140.28;;;8.71;100.00
23473;BME280;11909;52.516;13.564;2023-04-01T05:38:36;99143.84;;;8.72;100.00
23473;BME280;11909;52.516;13.564;2023-04-01T05:41:04;99141.13;;;8.72;100.00
23473;BME280;11909;52.516;13.564;2023-04-01T05:43:32;99148.22;;;8.73;100.00
23473;BME280;11909;52.516;13.564;2023-04-01T05:45:59;99151.75;;;8.73;100.00
23473;BME280;11909;52.516;13.564;2023-04-01T05:48:29;99152.56;;;8.74;100.00
23473;BME280;11909;52.516;13.564;2023-04-01T05:50:56;99149.81;;;8.74;100.00
23473;BME280;11909;52.516;13.564;2023-04-01T05:53:24;99155.28;;;8.74;100.00
23473;BME280;11909;52.516;13.564;2023-04-01T05:55:52;99159.34;;;8.77;100.00
23473;BME280;11909;52.516;13.564;2023-04-01T05:58:20;99158.75;;;8.80;100.00
23473;BME280;11909;52.516;13.564;2023-04-01T06:00:47;99159.84;;;8.79;100.00
23473;BME280;11909;52.516;13.564;2023-04-01T06:03:32;99162.09;;;8.77;100.00
23473;BME280;11909;52.516;13.564;2023-04-01T06:06:01;99163.72;;;8.78;100.00
23473;BME280;11909;52.516;13.564;2023-04-01T06:08:31;99163.72;;;8.78;100.00
23473;BME280;11909;52.516;13.564;2023-04-01T06:11:06;99177.19;;;8.74;100.00
23473;BME280;11909;52.516;13.564;2023-04-01T06:13:52;99169.38;;;8.67;100.00
23473;BME280;11909;52.516;13.564;2023-04-01T06:16:33;99180.03;;;8.69;100.00
23473;BME280;11909;52.516;13.564;2023-04-01T06:19:12;99179.09;;;8.73;100.00
23473;BME280;11909;52.516;13.564;2023-04-01T06:22:02;99185.88;;;8.76;100.00
23473;BME280;11909;52.516;13.564;2023-04-01T06:24:43;99189.84;;;8.70;100.00
23473;BME280;11909;52.516;13.564;2023-04-01T06:27:30;99190.66;;;8.70;100.00
23473;BME280;11909;52.516;13.564;2023-04-01T06:30:16;99186.50;;;8.73;100.00
23473;BME280;11909;52.516;13.564;2023-04-01T06:33:05;99190.84;;;8.74;100.00
23473;BME280;11909;52.516;13.564;2023-04-01T06:35:48;99197.13;;;8.74;100.00
23473;BME280;11909;52.516;13.564;2023-04-01T06:38:43;99198.94;;;8.79;100.00
23473;BME280;11909;52.516;13.564;2023-04-01T06:41:27;99194.19;;;8.85;100.00
23473;BME280;11909;52.516;13.564;2023-04-01T06:44:09;99203.63;;;8.79;100.00
23473;BME280;11909;52.516;13.564;2023-04-01T06:46:44;99200.47;;;8.71;100.00
23473;BME280;11909;52.516;13.564;2023-04-01T06:49:38;99202.09;;;8.72;100.00
23473;BME280;11909;52.516;13.564;2023-04-01T06:52:16;99202.09;;;8.72;100.00
23473;BME280;11909;52.516;13.564;2023-04-01T06:54:49;99204.19;;;8.75;100.00
23473;BME280;11909;52.516;13.564;2023-04-01T06:57:24;99207.53;;;8.86;100.00
23473;BME280;11909;52.516;13.564;2023-04-01T06:59:57;99198.53;;;8.86;100.00
23473;BME280;11909;52.516;13.564;2023-04-01T07:02:32;99208.66;;;8.85;100.00
23473;BME280;11909;52.516;13.564;2023-04-01T07:05:04;99209.47;;;8.86;100.00
23473;BME280;11909;52.516;13.564;2023-04-01T07:07:37;99209.47;;;8.86;100.00
23473;BME280;11909;52.516;13.564;2023-04-01T07:10:11;99212.22;;;8.86;100.00
23473;BME280;11909;52.516;13.564;2023-04-01T07:12:46;99212.72;;;8.88;100.00
23473;BME280;11909;52.516;13.564;2023-04-01T07:15:19;99221.41;;;8.90;100.00
23473;BME280;11909;52.516;13.564;2023-04-01T07:17:52;99216.78;;;8.91;100.00
23473;BME280;11909;52.516;13.564;2023-04-01T07:20:24;99219.19;;;8.92;100.00
23473;BME280;11909;52.516;13.564;2023-04-01T07:22:58;99210.97;;;8.92;100.00
23473;BME280;11909;52.516;13.564;2023-04-01T07:25:29;99219.69;;;8.94;100.00
23473;BME280;11909;52.516;13.564;2023-04-01T07:28:01;99223.53;;;8.93;100.00
23473;BME280;11909;52.516;13.564;2023-04-01T07:30:37;99222.75;;;8.93;100.00
23473;BME280;11909;52.516;13.564;2023-04-01T07:33:12;99226.78;;;8.95;100.00
23473;BME280;11909;52.516;13.564;2023-04-01T07:35:46;99239.84;;;8.98;100.00
23473;BME280;11909;52.516;13.564;2023-04-01T07:38:28;99238.44;;;9.01;100.00
23473;BME280;11909;52.516;13.564;2023-04-01T07:41:03;99233.16;;;9.04;100.00
23473;BME280;11909;52.516;13.564;2023-04-01T07:43:56;99236.41;;;9.07;100.00
23473;BME280;11909;52.516;13.564;2023-04-01T07:46:46;99229.81;;;9.08;100.00
23473;BME280;11909;52.516;13.564;2023-04-01T07:49:22;99233.34;;;9.08;100.00
23473;BME280;11909;52.516;13.564;2023-04-01T07:51:57;99236.56;;;9.10;100.00
23473;BME280;11909;52.516;13.564;2023-04-01T07:54:34;99234.38;;;9.12;100.00
23473;BME280;11909;52.516;13.564;2023-04-01T07:57:10;99243.38;;;9.13;100.00
23473;BME280;11909;52.516;13.564;2023-04-01T07:59:45;99245.31;;;9.12;100.00
23473;BME280;11909;52.516;13.564;2023-04-01T08:02:28;99248.34;;;9.11;100.00
23473;BME280;11909;52.516;13.564;2023-04-01T08:05:05;99256.34;;;9.07;100.00
23473;BME280;11909;52.516;13.564;2023-04-01T08:07:42;99256.25;;;8.98;100.00
23473;BME280;11909;52.516;13.564;2023-04-01T08:10:19;99258.81;;;8.95;100.00
23473;BME280;11909;52.516;13.564;2023-04-01T08:12:57;99265.19;;;8.90;100.00
23473;BME280;11909;52.516;13.564;2023-04-01T08:15:29;99264.19;;;8.86;100.00
23473;BME280;11909;52.516;13.564;2023-04-01T08:18:08;99270.28;;;8.83;100.00
23473;BME280;11909;52.516;13.564;2023-04-01T08:20:41;99273.63;;;8.80;100.00
23473;BME280;11909;52.516;13.564;2023-04-01T08:23:15;99277.47;;;8.79;100.00
23473;BME280;11909;52.516;13.564;2023-04-01T08:25:50;99277.25;;;8.75;100.00
23473;BME280;11909;52.516;13.564;2023-04-01T08:28:23;99281.13;;;8.74;100.00
23473;BME280;11909;52.516;13.564;2023-04-01T08:30:56;99286.81;;;8.78;100.00
23473;BME280;11909;52.516;13.564;2023-04-01T08:33:27;99280.28;;;8.73;100.00
23473;BME280;11909;52.516;13.564;2023-04-01T08:35:59;99290.72;;;8.71;100.00
23473;BME280;11909;52.516;13.564;2023-04-01T08:38:32;99296.69;;;8.73;100.00
23473;BME280;11909;52.516;13.564;2023-04-01T08:41:51;99303.09;;;8.69;100.00
23473;BME280;11909;52.516;13.564;2023-04-01T08:44:49;99303.41;;;8.67;100.00
23473;BME280;11909;52.516;13.564;2023-04-01T08:47:44;99303.72;;;8.66;100.00
23473;BME280;11909;52.516;13.564;2023-04-01T08:50:36;99314.34;;;8.67;100.00
23473;BME280;11909;52.516;13.564;2023-04-01T08:53:14;99302.28;;;8.68;100.00
23473;BME280;11909;52.516;13.564;2023-04-01T08:56:06;99313.72;;;8.70;100.00
23473;BME280;11909;52.516;13.564;2023-04-01T08:59:08;99319.50;;;8.69;100.00
23473;BME280;11909;52.516;13.564;2023-04-01T09:02:13;99319.00;;;8.67;100.00
23473;BME280;11909;52.516;13.564;2023-04-01T09:05:06;99320.91;;;8.66;100.00
23473;BME280;11909;52.516;13.564;2023-04-01T09:07:43;99316.56;;;8.65;100.00
23473;BME280;11909;52.516;13.564;2023-04-01T09:10:40;99325.50;;;8.71;100.00
23473;BME280;11909;52.516;13.564;2023-04-01T09:13:25;99320.31;;;8.69;100.00
23473;BME280;11909;52.516;13.564;2023-04-01T09:16:19;99332.56;;;8.72;100.00
23473;BME280;11909;52.516;13.564;2023-04-01T09:19:11;99327.22;;;8.67;100.00
23473;BME280;11909;52.516;13.564;2023-04-01T09:22:06;99331.84;;;8.66;100.00
23473;BME280;11909;52.516;13.564;2023-04-01T09:24:46;99332.97;;;8.65;100.00
23473;BME280;11909;52.516;13.564;2023-04-01T09:27:27;99342.78;;;8.66;100.00
23473;BME280;11909;52.516;13.564;2023-04-01T09:33:17;99346.66;;;8.65;100.00
23473;BME280;11909;52.516;13.564;2023-04-01T09:36:01;99342.00;;;8.66;100.00
23473;BME280;11909;52.516;13.564;2023-04-01T09:38:40;99345.03;;;8.64;100.00
23473;BME280;11909;52.516;13.564;2023-04-01T09:41:21;99353.44;;;8.68;100.00
23473;BME280;11909;52.516;13.564;2023-04-01T09:44:11;99356.09;;;8.73;100.00
23473;BME280;11909;52.516;13.564;2023-04-01T09:46:56;99352.72;;;8.76;100.00
23473;BME280;11909;52.516;13.564;2023-04-01T09:49:52;99365.91;;;8.74;100.00
23473;BME280;11909;52.516;13.564;2023-04-01T09:52:28;99364.28;;;8.73;100.00
23473;BME280;11909;52.516;13.564;2023-04-01T09:55:21;99367.63;;;8.70;100.00
23473;BME280;11909;52.516;13.564;2023-04-01T09:58:22;99373.16;;;8.65;100.00
23473;BME280;11909;52.516;13.564;2023-04-01T10:16:39;99388.28;;;8.76;100.00
23473;BME280;11909;52.516;13.564;2023-04-01T10:19:44;99390.31;;;8.70;100.00
23473;BME280;11909;52.516;13.564;2023-04-01T10:25:18;99390.31;;;8.70;100.00
23473;BME280;11909;52.516;13.564;2023-04-01T10:28:07;99393.03;;;8.70;100.00
23473;BME280;11909;52.516;13.564;2023-04-01T10:34:20;99394.38;;;8.73;100.00
23473;BME280;11909;52.516;13.564;2023-04-01T10:36:58;99390.91;;;8.67;100.00
23473;BME280;11909;52.516;13.564;2023-04-01T10:40:00;99404.59;;;8.67;100.00
23473;BME280;11909;52.516;13.564;2023-04-01T10:46:04;99408.53;;;8.61;100.00
23473;BME280;11909;52.516;13.564;2023-04-01T10:48:59;99406.69;;;8.56;100.00
23473;BME280;11909;52.516;13.564;2023-04-01T10:51:45;99403.44;;;8.54;100.00
23473;BME280;11909;52.516;13.564;2023-04-01T10:54:40;99410.88;;;8.49;100.00
23473;BME280;11909;52.516;13.564;2023-04-01T10:57:25;99422.06;;;8.52;100.00
23473;BME280;11909;52.516;13.564;2023-04-01T11:00:13;99413.03;;;8.52;100.00
23473;BME280;11909;52.516;13.564;2023-04-01T11:15:07;99425.47;;;8.44;100.00
23473;BME280;11909;52.516;13.564;2023-04-01T11:18:10;99430.34;;;8.47;100.00
23473;BME280;11909;52.516;13.564;2023-04-01T11:24:13;99438.53;;;8.47;100.00
23473;BME280;11909;52.516;13.564;2023-04-01T11:26:52;99439.44;;;8.42;100.00
23473;BME280;11909;52.516;13.564;2023-04-01T11:29:51;99447.91;;;8.41;100.00
23473;BME280;11909;52.516;13.564;2023-04-01T11:32:42;99442.75;;;8.39;100.00
23473;BME280;11909;52.516;13.564;2023-04-01T11:35:33;99443.88;;;8.38;100.00
23473;BME280;11909;52.516;13.564;2023-04-01T11:38:14;99443.03;;;8.38;100.00
23473;BME280;11909;52.516;13.564;2023-04-01T11:40:47;99450.38;;;8.42;100.00
23473;BME280;11909;52.516;13.564;2023-04-01T11:43:24;99458.72;;;8.51;100.00
23473;BME280;11909;52.516;13.564;2023-04-01T11:46:07;99457.97;;;8.45;100.00
23473;BME280;11909;52.516;13.564;2023-04-01T11:48:56;99456.28;;;8.50;100.00
23473;BME280;11909;52.516;13.564;2023-04-01T11:51:50;99459.31;;;8.48;100.00
23473;BME280;11909;52.516;13.564;2023-04-01T11:54:46;99465.94;;;8.42;100.00
23473;BME280;11909;52.516;13.564;2023-04-01T11:57:35;99470.56;;;8.27;100.00
23473;BME280;11909;52.516;13.564;2023-04-01T12:00:28;99479.19;;;8.35;100.00
23473;BME280;11909;52.516;13.564;2023-04-01T12:03:17;99484.97;;;8.33;100.00
23473;BME280;11909;52.516;13.564;2023-04-01T12:05:54;99482.09;;;8.24;100.00
23473;BME280;11909;52.516;13.564;2023-04-01T12:08:35;99485.09;;;8.23;100.00
23473;BME280;11909;52.516;13.564;2023-04-01T12:11:09;99492.50;;;8.22;100.00
23473;BME280;11909;52.516;13.564;2023-04-01T12:13:47;99488.34;;;8.25;100.00
23473;BME280;11909;52.516;13.564;2023-04-01T12:16:29;99497.06;;;8.27;100.00
23473;BME280;11909;52.516;13.564;2023-04-01T12:19:12;99494.56;;;8.30;100.00
23473;BME280;11909;52.516;13.564;2023-04-01T12:21:48;99498.69;;;8.28;100.00
23473;BME280;11909;52.516;13.564;2023-04-01T12:24:29;99511.03;;;8.25;100.00
23473;BME280;11909;52.516;13.564;2023-04-01T12:27:19;99501.72;;;8.26;100.00
23473;BME280;11909;52.516;13.564;2023-04-01T12:30:01;99502.00;;;8.25;100.00
23473;BME280;11909;52.516;13.564;2023-04-01T12:32:40;99515.59;;;8.30;100.00
23473;BME280;11909;52.516;13.564;2023-04-01T12:35:21;99523.59;;;8.26;100.00
23473;BME280;11909;52.516;13.564;2023-04-01T12:37:58;99517.91;;;8.23;100.00
23473;BME280;11909;52.516;13.564;2023-04-01T12:40:40;99523.94;;;8.20;100.00
23473;BME280;11909;52.516;13.564;2023-04-01T12:43:28;99522.41;;;8.13;100.00
23473;BME280;11909;52.516;13.564;2023-04-01T12:46:11;99524.81;;;8.15;100.00
23473;BME280;11909;52.516;13.564;2023-04-01T12:49:00;99525.88;;;8.19;100.00
23473;BME280;11909;52.516;13.564;2023-04-01T12:51:58;99530.81;;;8.17;100.00
23473;BME280;11909;52.516;13.564;2023-04-01T12:58:06;99540.94;;;8.16;100.00
23473;BME280;11909;52.516;13.564;2023-04-01T13:00:54;99552.38;;;8.18;100.00
23473;BME280;11909;52.516;13.564;2023-04-01T13:03:40;99550.84;;;8.12;100.00
23473;BME280;11909;52.516;13.564;2023-04-01T13:06:27;99552.31;;;8.04;100.00
23473;BME280;11909;52.516;13.564;2023-04-01T13:09:05;99557.00;;;7.99;100.00
23473;BME280;11909;52.516;13.564;2023-04-01T13:11:51;99555.22;;;7.89;100.00
23473;BME280;11909;52.516;13.564;2023-04-01T13:14:34;99567.03;;;7.84;100.00
23473;BME280;11909;52.516;13.564;2023-04-01T13:17:06;99561.25;;;7.86;100.00
23473;BME280;11909;52.516;13.564;2023-04-01T13:19:41;99560.91;;;7.93;100.00
23473;BME280;11909;52.516;13.564;2023-04-01T13:22:45;99570.66;;;7.99;100.00
23473;BME280;11909;52.516;13.564;2023-04-01T13:25:24;99578.69;;;7.90;100.00
23473;BME280;11909;52.516;13.564;2023-04-01T13:27:57;99571.94;;;7.82;100.00
23473;BME280;11909;52.516;13.564;2023-04-01T13:30:33;99577.66;;;7.86;100.00
23473;BME280;11909;52.516;13.564;2023-04-01T13:33:09;99584.47;;;7.88;100.00
23473;BME280;11909;52.516;13.564;2023-04-01T13:35:46;99587.78;;;7.85;100.00
23473;BME280;11909;52.516;13.564;2023-04-01T13:38:45;99599.03;;;7.79;100.00
23473;BME280;11909;52.516;13.564;2023-04-01T13:41:23;99609.16;;;7.78;100.00
23473;BME280;11909;52.516;13.564;2023-04-01T13:43:59;99608.38;;;7.72;100.00
23473;BME280;11909;52.516;13.564;2023-04-01T13:46:41;99612.34;;;7.61;100.00
23473;BME280;11909;52.516;13.564;2023-04-01T13:49:30;99609.03;;;7.64;100.00
23473;BME280;11909;52.516;13.564;2023-04-01T13:55:31;99611.88;;;7.49;100.00
23473;BME280;11909;52.516;13.564;2023-04-01T13:58:24;99614.94;;;7.47;100.00
23473;BME280;11909;52.516;13.564;2023-04-01T14:01:06;99613.00;;;7.47;100.00
23473;BME280;11909;52.516;13.564;2023-04-01T14:06:42;99617.94;;;7.45;100.00
23473;BME280;11909;52.516;13.564;2023-04-01T14:12:33;99626.81;;;7.62;100.00
23473;BME280;11909;52.516;13.564;2023-04-01T14:15:25;99623.25;;;7.61;100.00
23473;BME280;11909;52.516;13.564;2023-04-01T14:18:14;99636.66;;;7.57;100.00
23473;BME280;11909;52.516;13.564;2023-04-01T14:20:49;99643.75;;;7.58;100.00
23473;BME280;11909;52.516;13.564;2023-04-01T14:23:53;99649.47;;;7.62;100.00
23473;BME280;11909;52.516;13.564;2023-04-01T14:26:44;99658.56;;;7.52;100.00
23473;BME280;11909;52.516;13.564;2023-04-01T14:29:21;99652.03;;;7.48;100.00
23473;BME280;11909;52.516;13.564;2023-04-01T14:32:03;99660.28;;;7.43;100.00
23473;BME280;11909;52.516;13.564;2023-04-01T14:34:48;99656.72;;;7.42;100.00
23473;BME280;11909;52.516;13.564;2023-04-01T14:37:40;99663.28;;;7.41;100.00
23473;BME280;11909;52.516;13.564;2023-04-01T14:40:24;99658.59;;;7.47;100.00
23473;BME280;11909;52.516;13.564;2023-04-01T14:43:26;99667.25;;;7.54;100.00